Home PIREPS Pireps

Flight BEL2103

  • Submitted By: Stef Petit
  • Departure Airport: Bruxelles National (EBBR)
  • Arrival Airport: Heathrow (EGLL)
  • Aircraft: A319-111 (OO-SSA)
  • Flight Time: 00.52
  • Date Submitted: 06/01/2015
  • Status: Accepted
Flight Details
Gross Revenue:
(110 load / € 0.00 per unit
€ 0.00
Fuel Cost:
(3810 fuel used @ 5.1 / unit)
€ 19,431.00

Additional Log Information:

View Log

Aircraft Used in flight is Boeing 737-800 Paint2
09:59 You Took off @ 165 Knots and Flaps at Position 3
Departure Weather
EBBR 060820Z VRB01KT CAVOK M02/M04 Q1022 NOSIGrn
09:59 Landing Gear Up @ 212 Knots and 660 Feet
09:59 Below 10000 feet you are not allowed to go over 250 knots
09:59 Below FL100 you need to turn on the landing lights
10:00 You exceeded maximum bank angle
10:01 Paused
10:01 Unpaused
10:02 Paused
10:03 Unpaused
10:32 Above FL100 you need to switch of the landing lights
10:32 Above FL100 you need to switch of the landing lights
10:48 Landing Gear Down @ 173 Knots and 1580 Feet
10:49 You Landed @ 141 Knots and with -650 Vertical Speed
Arrival Weather
EGLL 060850Z 20010KT 9999 SCT008 BKN009 08/07 Q1018 TEMPO SCT009 BKN012rn
10:49 Your Landing was very hard
10:50 Brakes are On
10:50 Paused
10:50 Brussels Bel-Track1.0.0.0

Route Map

Corporate About Us Our Team Vacancies Information Fleet Route Network Rules and Regulations Operations Flight Schedules Event Center Tours Partners IVAO Vatsim Acars dev FSCB

fb Users Online Belgium Marc Van Loo,
1 Pilot(s) and 99 Guest(s) Online
CMS by phpVMS - Design by Crazycreatives.com - Copyright © 2018 - Brussels Airlines Virtual